createdAt,value
2023-04-21T00:00:16.113Z,6.45
2023-04-21T00:02:42.566Z,6.07
2023-04-21T00:05:10.449Z,5.55
2023-04-21T00:07:40.324Z,4.65
2023-04-21T00:10:10.229Z,6.15
2023-04-21T00:12:36.908Z,4.68
2023-04-21T00:15:03.599Z,6.07
2023-04-21T00:17:29.971Z,6.22
2023-04-21T00:19:56.362Z,5.50
2023-04-21T00:22:22.769Z,5.40
2023-04-21T00:24:49.248Z,6.15
2023-04-21T00:27:16.105Z,6.40
2023-04-21T00:29:42.623Z,5.40
2023-04-21T00:32:10.082Z,5.80
2023-04-21T00:34:36.552Z,5.47
2023-04-21T00:37:03.390Z,6.35
2023-04-21T00:39:29.744Z,6.40
2023-04-21T00:41:57.340Z,6.70
2023-04-21T00:44:23.672Z,5.63
2023-04-21T00:46:50.231Z,6.38
2023-04-21T00:49:16.752Z,6.80
2023-04-21T00:51:43.542Z,6.97
2023-04-21T00:54:11.922Z,6.90
2023-04-21T00:56:38.226Z,7.47
2023-04-21T00:59:04.659Z,7.43
2023-04-21T01:01:31.633Z,7.53
2023-04-21T01:03:59.243Z,7.25
2023-04-21T01:06:28.374Z,5.78
2023-04-21T01:08:55.297Z,7.22
2023-04-21T01:11:21.781Z,7.30
2023-04-21T01:13:48.154Z,6.55
2023-04-21T01:16:18.089Z,7.65
2023-04-21T01:18:45.055Z,6.65
2023-04-21T01:21:11.601Z,7.55
2023-04-21T01:23:38.096Z,7.60
2023-04-21T01:26:04.513Z,7.38
2023-04-21T01:28:31.016Z,6.28
2023-04-21T01:30:57.461Z,5.88
2023-04-21T01:33:24.082Z,6.43
2023-04-21T01:35:50.573Z,7.78
2023-04-21T01:38:19.650Z,7.57
2023-04-21T01:40:47.961Z,6.53
2023-04-21T01:43:14.784Z,7.65
2023-04-21T01:45:41.155Z,7.40
2023-04-21T01:48:07.662Z,7.78
2023-04-21T01:50:34.053Z,8.50
2023-04-21T01:53:00.489Z,8.63
2023-04-21T01:55:26.864Z,6.32
2023-04-21T01:57:53.315Z,7.93
2023-04-21T02:00:19.718Z,7.45
2023-04-21T02:02:46.263Z,8.05
2023-04-21T02:05:12.666Z,9.10
2023-04-21T02:07:38.965Z,7.90
2023-04-21T02:10:05.711Z,8.38
2023-04-21T02:12:32.033Z,9.63
2023-04-21T02:14:58.365Z,9.27
2023-04-21T02:17:24.787Z,6.85
2023-04-21T02:19:51.294Z,8.63
2023-04-21T02:22:17.704Z,8.43
2023-04-21T02:24:44.119Z,9.30
2023-04-21T02:27:10.675Z,8.27
2023-04-21T02:29:37.078Z,6.57
2023-04-21T02:32:14.238Z,8.27
2023-04-21T02:34:48.347Z,7.72
2023-04-21T02:37:15.033Z,6.53
2023-04-21T02:39:41.372Z,7.47
2023-04-21T02:42:07.672Z,8.88
2023-04-21T02:44:34.008Z,5.75
2023-04-21T02:47:00.496Z,6.93
2023-04-21T02:49:27.016Z,9.13
2023-04-21T02:51:54.928Z,10.02
2023-04-21T02:54:21.345Z,9.90
2023-04-21T02:56:48.005Z,9.88
2023-04-21T02:59:16.680Z,9.00
2023-04-21T03:01:43.219Z,10.13
2023-04-21T03:04:09.674Z,9.50
2023-04-21T03:06:36.185Z,9.77
2023-04-21T03:09:02.768Z,10.20
2023-04-21T03:11:29.156Z,11.38
2023-04-21T03:13:55.570Z,10.77
2023-04-21T03:16:22.911Z,10.57
2023-04-21T03:18:49.266Z,10.75
2023-04-21T03:21:15.822Z,10.45
2023-04-21T03:23:42.143Z,10.68
2023-04-21T03:26:08.634Z,11.30
2023-04-21T03:28:35.056Z,12.05
2023-04-21T03:31:01.360Z,10.65
2023-04-21T03:33:27.760Z,9.27
2023-04-21T03:35:54.174Z,9.82
2023-04-21T03:38:20.677Z,12.07
2023-04-21T03:40:46.973Z,11.90
2023-04-21T03:43:13.324Z,11.70
2023-04-21T03:45:39.662Z,10.30
2023-04-21T03:48:06.189Z,11.30
2023-04-21T03:50:32.565Z,11.27
2023-04-21T03:52:58.899Z,9.82
2023-04-21T03:55:25.291Z,11.00
2023-04-21T03:57:51.666Z,10.30
2023-04-21T04:00:18.158Z,10.88
2023-04-21T04:02:44.718Z,9.48
2023-04-21T04:05:11.262Z,7.95
2023-04-21T04:07:37.842Z,12.15
2023-04-21T04:10:04.481Z,7.97
2023-04-21T04:12:31.160Z,10.85
2023-04-21T04:14:57.450Z,11.70
2023-04-21T04:17:23.874Z,11.60
2023-04-21T04:19:50.292Z,12.43
2023-04-21T04:22:16.618Z,11.50
2023-04-21T04:24:45.052Z,11.57
2023-04-21T04:27:13.989Z,12.48
2023-04-21T04:29:41.109Z,12.48
2023-04-21T04:32:09.433Z,12.32
2023-04-21T04:34:37.531Z,12.20
2023-04-21T04:37:04.407Z,12.73
2023-04-21T04:39:31.872Z,12.35
2023-04-21T04:41:58.330Z,12.15
2023-04-21T04:44:25.864Z,12.93
2023-04-21T04:46:52.846Z,12.57
2023-04-21T04:49:19.724Z,13.40
2023-04-21T04:51:46.331Z,12.80
2023-04-21T04:54:12.820Z,12.45
2023-04-21T04:56:40.444Z,12.57
2023-04-21T04:59:06.823Z,13.85
2023-04-21T05:01:33.152Z,12.93
2023-04-21T05:03:59.848Z,11.88
2023-04-21T05:06:26.325Z,13.02
2023-04-21T05:08:52.681Z,14.18
2023-04-21T05:11:19.032Z,12.63
2023-04-21T05:13:45.365Z,13.45
2023-04-21T05:16:11.708Z,11.70
2023-04-21T05:18:38.158Z,11.68
2023-04-21T05:21:04.725Z,13.85
2023-04-21T05:23:31.160Z,13.27
2023-04-21T05:25:57.473Z,10.50
2023-04-21T05:28:23.868Z,13.07
2023-04-21T05:30:50.312Z,13.77
2023-04-21T05:33:19.823Z,13.80
2023-04-21T05:35:46.358Z,13.15
2023-04-21T05:38:12.891Z,13.55
2023-04-21T05:40:39.226Z,12.55
2023-04-21T05:43:05.580Z,14.18
2023-04-21T05:45:31.909Z,13.88
2023-04-21T05:47:58.337Z,12.70
2023-04-21T05:50:28.514Z,14.25
2023-04-21T05:52:54.918Z,14.02
2023-04-21T05:55:21.446Z,13.63
2023-04-21T05:57:49.162Z,13.80
2023-04-21T06:00:16.581Z,12.55
2023-04-21T06:02:43.093Z,13.02
2023-04-21T06:05:10.312Z,11.35
2023-04-21T06:07:49.449Z,14.88
2023-04-21T06:10:17.057Z,12.65
2023-04-21T06:12:43.397Z,14.15
2023-04-21T06:15:09.953Z,13.48
2023-04-21T06:17:36.296Z,12.55
2023-04-21T06:20:04.051Z,13.10
2023-04-21T06:22:30.383Z,14.43
2023-04-21T06:24:58.665Z,13.93
2023-04-21T06:27:25.477Z,13.77
2023-04-21T06:29:54.536Z,13.65
2023-04-21T06:32:20.930Z,14.30
2023-04-21T06:34:47.279Z,13.25
2023-04-21T06:37:13.577Z,14.27
2023-04-21T06:39:40.270Z,13.02
2023-04-21T06:42:06.628Z,14.50
2023-04-21T06:44:32.948Z,14.27
2023-04-21T06:46:59.366Z,13.48
2023-04-21T06:49:25.835Z,15.05
2023-04-21T06:51:52.215Z,10.68
2023-04-21T06:54:18.543Z,13.88
2023-04-21T06:56:44.892Z,15.48
2023-04-21T06:59:11.446Z,14.95
2023-04-21T07:01:37.781Z,15.38
2023-04-21T07:04:06.321Z,15.57
2023-04-21T07:06:32.866Z,16.92
2023-04-21T07:08:59.318Z,15.20
2023-04-21T07:11:26.003Z,16.33
2023-04-21T07:13:52.344Z,14.93
2023-04-21T07:16:18.739Z,9.07
2023-04-21T07:18:45.052Z,15.73
2023-04-21T07:21:11.479Z,16.75
2023-04-21T07:23:37.917Z,17.80
2023-04-21T07:26:04.279Z,15.32
2023-04-21T07:28:30.649Z,11.10
2023-04-21T07:30:57.090Z,16.35
2023-04-21T07:33:23.527Z,15.00
2023-04-21T07:35:50.024Z,11.27
2023-04-21T07:38:16.408Z,17.75
2023-04-21T07:40:42.758Z,11.05
2023-04-21T07:43:09.142Z,15.07
2023-04-21T07:45:35.584Z,12.75
2023-04-21T07:48:02.027Z,15.75
2023-04-21T07:50:28.829Z,19.65
2023-04-21T07:52:55.320Z,17.77
2023-04-21T07:55:21.708Z,18.85
2023-04-21T07:57:48.191Z,12.25
2023-04-21T08:00:15.160Z,19.48
2023-04-21T08:02:41.742Z,19.17
2023-04-21T08:05:08.690Z,20.73
2023-04-21T08:07:35.262Z,21.65
2023-04-21T08:10:02.630Z,19.98
2023-04-21T08:12:28.978Z,14.05
2023-04-21T08:14:58.334Z,21.20
2023-04-21T08:17:24.922Z,19.67
2023-04-21T08:19:52.116Z,21.85
2023-04-21T08:22:18.580Z,18.85
2023-04-21T08:24:44.950Z,21.08
2023-04-21T08:27:11.403Z,22.33
2023-04-21T08:29:37.971Z,21.23
2023-04-21T08:32:04.725Z,20.73
2023-04-21T08:34:31.296Z,20.13
2023-04-21T08:36:57.854Z,21.75
2023-04-21T08:39:24.317Z,16.85
2023-04-21T08:41:50.878Z,19.20
2023-04-21T08:44:19.384Z,19.70
2023-04-21T08:46:47.745Z,21.83
2023-04-21T08:49:15.919Z,22.10
2023-04-21T08:51:42.349Z,19.60
2023-04-21T08:54:08.826Z,21.15
2023-04-21T08:56:35.285Z,20.23
2023-04-21T08:59:01.681Z,19.95
2023-04-21T09:01:28.263Z,20.05
2023-04-21T09:03:54.881Z,19.40
2023-04-21T09:06:21.530Z,18.63
2023-04-21T09:08:58.026Z,16.67
2023-04-21T09:11:24.472Z,17.65
2023-04-21T09:13:50.892Z,16.73
2023-04-21T09:16:21.976Z,14.48
2023-04-21T09:18:49.562Z,15.52
2023-04-21T09:21:17.030Z,10.95
2023-04-21T09:23:43.496Z,12.55
2023-04-21T09:26:10.274Z,16.08
2023-04-21T09:28:36.767Z,16.55
2023-04-21T09:31:03.126Z,11.38
2023-04-21T09:33:39.456Z,14.68
2023-04-21T09:36:21.070Z,14.32
2023-04-21T09:38:49.978Z,13.32
2023-04-21T09:41:17.839Z,15.23
2023-04-21T09:43:44.196Z,15.98
2023-04-21T09:46:11.931Z,17.55
2023-04-21T09:48:41.873Z,17.00
2023-04-21T09:53:39.276Z,10.48
2023-04-21T09:56:06.795Z,10.15
2023-04-21T09:58:36.630Z,13.98
2023-04-21T10:01:04.836Z,12.23
2023-04-21T10:03:32.196Z,13.30
2023-04-21T10:05:58.841Z,9.30
2023-04-21T10:08:25.322Z,14.40
2023-04-21T10:10:52.924Z,12.43
2023-04-21T10:13:19.368Z,10.90
2023-04-21T10:15:45.879Z,11.80
2023-04-21T10:18:13.220Z,14.52
2023-04-21T10:20:57.823Z,11.02
2023-04-21T10:23:33.104Z,10.25
2023-04-21T10:26:04.112Z,13.90
2023-04-21T10:28:42.913Z,13.70
2023-04-21T10:31:32.379Z,11.93
2023-04-21T10:34:12.487Z,12.15
2023-04-21T10:36:45.077Z,10.75
2023-04-21T10:39:16.565Z,10.95
2023-04-21T10:41:43.307Z,13.80
2023-04-21T10:44:09.626Z,14.23
2023-04-21T10:46:37.090Z,14.02
2023-04-21T10:49:10.763Z,12.30
2023-04-21T10:51:55.949Z,13.27
2023-04-21T10:54:22.660Z,9.93
2023-04-21T10:56:53.163Z,13.00
2023-04-21T10:59:19.737Z,12.48
2023-04-21T11:01:46.157Z,12.50
2023-04-21T11:04:19.927Z,13.05
2023-04-21T11:07:25.685Z,9.98
2023-04-21T11:10:06.074Z,12.88
2023-04-21T11:12:34.097Z,12.15
2023-04-21T11:15:03.827Z,12.27
2023-04-21T11:17:30.602Z,11.65
2023-04-21T11:19:57.021Z,12.18
2023-04-21T11:22:24.134Z,12.93
2023-04-21T11:24:55.775Z,14.05
2023-04-21T11:27:24.965Z,14.65
2023-04-21T11:29:52.279Z,13.88
2023-04-21T11:32:19.068Z,15.18
2023-04-21T11:34:45.814Z,14.90
2023-04-21T11:37:16.792Z,14.38
2023-04-21T11:39:44.022Z,13.23
2023-04-21T11:42:11.717Z,13.15
2023-04-21T11:44:42.086Z,12.68
2023-04-21T11:47:21.487Z,14.10
2023-04-21T11:49:49.360Z,11.93
2023-04-21T11:52:21.781Z,11.25
2023-04-21T11:54:48.279Z,10.48
2023-04-21T11:57:17.831Z,9.63
2023-04-21T11:59:45.349Z,9.95
2023-04-21T12:02:13.387Z,7.15
2023-04-21T12:04:40.004Z,7.85
2023-04-21T12:07:06.488Z,10.00
2023-04-21T12:09:36.109Z,10.10
2023-04-21T12:12:05.393Z,10.45
2023-04-21T12:14:33.195Z,11.27
2023-04-21T12:16:59.536Z,8.73
2023-04-21T12:19:39.747Z,6.85
2023-04-21T12:22:12.890Z,8.93
2023-04-21T12:24:39.778Z,8.63
2023-04-21T12:27:06.655Z,10.40
2023-04-21T12:29:37.630Z,9.43
2023-04-21T12:32:04.932Z,9.63
2023-04-21T12:34:31.616Z,9.52
2023-04-21T12:36:58.052Z,9.10
2023-04-21T12:39:24.534Z,8.40
2023-04-21T12:41:51.269Z,8.32
2023-04-21T12:44:17.767Z,9.10
2023-04-21T12:46:44.155Z,9.05
2023-04-21T12:49:11.166Z,7.47
2023-04-21T12:51:37.636Z,7.72
2023-04-21T12:54:04.036Z,6.80
2023-04-21T12:56:30.595Z,8.13
2023-04-21T12:58:57.353Z,12.35
2023-04-21T13:01:24.372Z,11.10
2023-04-21T13:03:51.000Z,11.80
2023-04-21T13:06:17.482Z,10.55
2023-04-21T13:08:43.827Z,10.50
2023-04-21T13:11:10.673Z,12.80
2023-04-21T13:13:37.147Z,12.80
2023-04-21T13:16:03.648Z,12.45
2023-04-21T13:18:30.130Z,12.65
2023-04-21T13:20:56.578Z,10.77
2023-04-21T13:23:22.952Z,12.68
2023-04-21T13:25:50.972Z,12.75
2023-04-21T13:28:17.600Z,13.13
2023-04-21T13:30:44.614Z,11.85
2023-04-21T13:33:11.458Z,13.05
2023-04-21T13:35:38.382Z,13.50
2023-04-21T13:38:05.772Z,13.07
2023-04-21T13:40:32.134Z,12.18
2023-04-21T13:42:59.404Z,8.40
2023-04-21T13:45:26.458Z,10.07
2023-04-21T13:47:53.201Z,9.45
2023-04-21T13:50:19.998Z,8.82
2023-04-21T13:52:46.553Z,8.75
2023-04-21T13:55:12.905Z,13.18
2023-04-21T13:57:39.484Z,12.70
2023-04-21T14:00:06.659Z,13.23
2023-04-21T14:02:33.312Z,14.00
2023-04-21T14:04:59.982Z,13.68
2023-04-21T14:07:26.775Z,13.02
2023-04-21T14:09:53.219Z,13.40
2023-04-21T14:12:19.588Z,14.30
2023-04-21T14:14:45.893Z,12.88
2023-04-21T14:17:12.294Z,14.45
2023-04-21T14:19:39.080Z,13.63
2023-04-21T14:22:05.516Z,13.55
2023-04-21T14:24:32.544Z,11.43
2023-04-21T14:26:59.223Z,12.30
2023-04-21T14:29:25.797Z,12.73
2023-04-21T14:31:53.882Z,10.32
2023-04-21T14:34:20.357Z,11.45
2023-04-21T14:36:49.993Z,8.32
2023-04-21T14:39:16.830Z,12.05
2023-04-21T14:41:43.265Z,11.35
2023-04-21T14:44:09.696Z,11.55
2023-04-21T14:46:36.582Z,11.48
2023-04-21T14:49:03.462Z,11.55
2023-04-21T14:51:29.927Z,10.43
2023-04-21T14:53:56.264Z,11.35
2023-04-21T14:56:22.626Z,10.43
2023-04-21T14:58:49.221Z,11.15
2023-04-21T15:01:15.853Z,10.50
2023-04-21T15:03:42.454Z,10.18
2023-04-21T15:06:09.070Z,8.13
2023-04-21T15:08:35.895Z,11.27
2023-04-21T15:11:02.588Z,11.82
2023-04-21T15:13:29.242Z,12.20
2023-04-21T15:15:55.836Z,12.35
2023-04-21T15:18:22.230Z,9.85
2023-04-21T15:20:48.611Z,12.45
2023-04-21T15:23:15.051Z,8.48
2023-04-21T15:25:41.847Z,12.43
2023-04-21T15:28:08.708Z,10.85
2023-04-21T15:30:35.689Z,10.10
2023-04-21T15:33:02.520Z,13.40
2023-04-21T15:35:29.101Z,13.73
2023-04-21T15:37:55.550Z,14.20
2023-04-21T15:40:21.959Z,14.23
2023-04-21T15:42:48.434Z,14.90
2023-04-21T15:45:17.798Z,12.90
2023-04-21T15:47:44.435Z,10.48
2023-04-21T15:50:11.132Z,12.48
2023-04-21T15:52:43.219Z,13.02
2023-04-21T15:55:12.932Z,13.50
2023-04-21T15:57:39.359Z,14.95
2023-04-21T16:00:05.948Z,14.35
2023-04-21T16:02:32.457Z,11.55
2023-04-21T16:04:59.126Z,13.32
2023-04-21T16:07:26.551Z,14.40
2023-04-21T16:09:53.020Z,14.10
2023-04-21T16:12:19.457Z,13.38
2023-04-21T16:14:56.073Z,12.10
2023-04-21T16:17:27.657Z,12.85
2023-04-21T16:19:54.312Z,12.18
2023-04-21T16:22:20.756Z,12.77
2023-04-21T16:24:48.047Z,14.38
2023-04-21T16:27:14.536Z,13.82
2023-04-21T16:29:40.955Z,14.85
2023-04-21T16:32:08.233Z,14.18
2023-04-21T16:34:34.761Z,15.35
2023-04-21T16:37:01.997Z,13.98
2023-04-21T16:39:28.293Z,13.63
2023-04-21T16:41:54.766Z,12.88
2023-04-21T16:44:22.010Z,14.98
2023-04-21T16:46:48.490Z,12.77
2023-04-21T16:49:15.362Z,14.52
2023-04-21T16:51:44.890Z,12.45
2023-04-21T16:54:11.666Z,13.60
2023-04-21T16:56:38.774Z,15.65
2023-04-21T16:59:06.764Z,14.48
2023-04-21T17:01:33.245Z,15.07
2023-04-21T17:04:00.033Z,15.45
2023-04-21T17:06:26.513Z,14.02
2023-04-21T17:08:59.559Z,14.80
2023-04-21T17:11:27.162Z,14.95
2023-04-21T17:13:53.913Z,15.68
2023-04-21T17:16:20.563Z,15.98
2023-04-21T17:18:47.093Z,15.35
2023-04-21T17:21:13.626Z,14.95
2023-04-21T17:23:40.022Z,14.90
2023-04-21T17:26:07.090Z,14.00
2023-04-21T17:28:33.617Z,12.07
2023-04-21T17:31:13.863Z,15.18
2023-04-21T17:33:42.333Z,13.93
2023-04-21T17:36:08.829Z,14.88
2023-04-21T17:38:35.432Z,15.00
2023-04-21T17:41:02.069Z,14.90
2023-04-21T17:43:28.649Z,16.33
2023-04-21T17:45:55.138Z,15.52
2023-04-21T17:48:21.589Z,16.10
2023-04-21T17:50:48.004Z,16.25
2023-04-21T17:53:14.323Z,16.20
2023-04-21T17:55:40.969Z,15.82
2023-04-21T17:58:09.320Z,15.00
2023-04-21T18:00:37.249Z,12.45
2023-04-21T18:03:03.718Z,13.85
2023-04-21T18:05:30.984Z,13.25
2023-04-21T18:07:57.431Z,11.55
2023-04-21T18:10:23.766Z,11.07
2023-04-21T18:12:50.228Z,9.10
2023-04-21T18:15:16.677Z,9.70
2023-04-21T18:17:43.113Z,8.70
2023-04-21T18:20:12.190Z,8.15
2023-04-21T18:22:38.632Z,7.90
2023-04-21T18:25:05.445Z,8.43
2023-04-21T18:27:31.915Z,9.00
2023-04-21T18:29:58.208Z,2.90
2023-04-21T18:32:24.805Z,2.95
2023-04-21T18:34:51.308Z,2.58
2023-04-21T18:37:17.686Z,4.32
2023-04-21T18:39:44.038Z,4.72
2023-04-21T18:42:10.481Z,4.60
2023-04-21T18:44:37.116Z,4.72
2023-04-21T18:47:03.715Z,3.95
2023-04-21T18:49:30.084Z,4.60
2023-04-21T18:51:56.617Z,3.85
2023-04-21T18:54:23.124Z,4.07
2023-04-21T18:56:49.878Z,3.72
2023-04-21T18:59:16.221Z,4.35
2023-04-21T19:01:42.856Z,4.05
2023-04-21T19:04:10.662Z,3.70
2023-04-21T19:06:37.920Z,3.22
2023-04-21T19:09:04.785Z,2.85
2023-04-21T19:11:31.270Z,3.55
2023-04-21T19:13:57.569Z,3.35
2023-04-21T19:16:24.191Z,3.88
2023-04-21T19:18:52.184Z,2.42
2023-04-21T19:21:18.586Z,2.50
2023-04-21T19:23:44.977Z,3.67
2023-04-21T19:26:13.198Z,3.63
2023-04-21T19:28:40.443Z,4.80
2023-04-21T19:31:07.099Z,4.03
2023-04-21T19:33:33.507Z,4.68
2023-04-21T19:36:00.072Z,4.25
2023-04-21T19:38:26.738Z,3.05
2023-04-21T19:40:53.552Z,3.35
2023-04-21T19:43:20.991Z,3.38
2023-04-21T19:45:48.314Z,2.92
2023-04-21T19:48:15.246Z,5.15
2023-04-21T19:50:42.547Z,2.75
2023-04-21T19:53:14.818Z,3.80
2023-04-21T19:55:44.517Z,3.10
2023-04-21T19:58:11.335Z,3.20
2023-04-21T20:00:37.979Z,3.85
2023-04-21T20:03:06.733Z,2.70
2023-04-21T20:05:33.776Z,4.70
2023-04-21T20:08:00.199Z,4.60
2023-04-21T20:10:26.828Z,4.70
2023-04-21T20:12:53.248Z,4.60
2023-04-21T20:15:21.210Z,5.65
2023-04-21T20:17:49.076Z,3.85
2023-04-21T20:20:16.471Z,5.38
2023-04-21T20:22:42.880Z,4.97
2023-04-21T20:25:10.613Z,6.13
2023-04-21T20:27:36.995Z,6.35
2023-04-21T20:30:03.856Z,7.32
2023-04-21T20:32:30.420Z,6.35
2023-04-21T20:34:57.376Z,7.40
2023-04-21T20:37:23.839Z,7.72
2023-04-21T20:39:50.239Z,7.55
2023-04-21T20:42:18.399Z,7.90
2023-04-21T20:44:45.062Z,8.35
2023-04-21T20:47:11.931Z,7.90
2023-04-21T20:49:39.176Z,8.02
2023-04-21T20:52:06.080Z,8.23
2023-04-21T20:54:34.526Z,7.20
2023-04-21T20:57:01.876Z,8.93
2023-04-21T20:59:28.354Z,9.10
2023-04-21T21:01:54.767Z,8.85
2023-04-21T21:04:21.392Z,9.15
2023-04-21T21:06:47.961Z,9.77
2023-04-21T21:09:14.449Z,7.50
2023-04-21T21:11:40.829Z,6.93
2023-04-21T21:14:07.128Z,9.43
2023-04-21T21:16:33.562Z,7.65
2023-04-21T21:19:00.043Z,6.53
2023-04-21T21:21:27.170Z,5.30
2023-04-21T21:23:53.611Z,6.38
2023-04-21T21:26:19.981Z,5.15
2023-04-21T21:28:46.397Z,3.45
2023-04-21T21:31:12.741Z,3.40
2023-04-21T21:33:39.043Z,4.53
2023-04-21T21:36:05.646Z,5.50
2023-04-21T21:38:32.328Z,6.35
2023-04-21T21:40:58.658Z,6.43
2023-04-21T21:43:25.091Z,4.05
2023-04-21T21:45:51.497Z,4.72
2023-04-21T21:48:17.901Z,3.65
2023-04-21T21:50:44.400Z,4.07
2023-04-21T21:53:29.099Z,6.75
2023-04-21T21:55:55.539Z,4.80
2023-04-21T21:58:21.939Z,7.40
2023-04-21T22:00:51.850Z,8.05
2023-04-21T22:03:19.145Z,7.65
2023-04-21T22:05:45.828Z,7.85
2023-04-21T22:08:15.838Z,6.90
2023-04-21T22:10:42.760Z,6.28
2023-04-21T22:13:09.239Z,6.97
2023-04-21T22:15:37.139Z,6.18
2023-04-21T22:18:03.718Z,6.72
2023-04-21T22:20:30.258Z,4.50
2023-04-21T22:22:56.654Z,7.18
2023-04-21T22:25:26.908Z,7.53
2023-04-21T22:27:54.199Z,7.05
2023-04-21T22:30:20.692Z,6.82
2023-04-21T22:32:47.280Z,6.63
2023-04-21T22:35:13.737Z,5.70
2023-04-21T22:37:40.337Z,7.03
2023-04-21T22:40:07.314Z,4.22
2023-04-21T22:42:33.719Z,6.13
2023-04-21T22:45:01.521Z,7.65
2023-04-21T22:47:27.999Z,7.90
2023-04-21T22:49:55.825Z,4.43
2023-04-21T22:52:22.230Z,6.55
2023-04-21T22:54:48.646Z,6.80
2023-04-21T22:57:15.018Z,8.02
2023-04-21T22:59:41.340Z,6.88
2023-04-21T23:02:08.116Z,5.00
2023-04-21T23:04:35.490Z,8.27
2023-04-21T23:07:01.791Z,6.65
2023-04-21T23:09:28.244Z,6.30
2023-04-21T23:11:54.641Z,7.40
2023-04-21T23:14:21.210Z,7.32
2023-04-21T23:16:47.640Z,7.80
2023-04-21T23:19:14.136Z,6.28
2023-04-21T23:21:40.562Z,4.70
2023-04-21T23:24:07.025Z,7.55
2023-04-21T23:26:33.433Z,7.43
2023-04-21T23:29:00.272Z,8.80
2023-04-21T23:31:26.654Z,8.52
2023-04-21T23:33:53.063Z,6.30
2023-04-21T23:36:19.501Z,8.75
2023-04-21T23:38:45.958Z,9.98
2023-04-21T23:41:12.372Z,3.90
2023-04-21T23:43:38.786Z,4.93
2023-04-21T23:46:05.249Z,7.75
2023-04-21T23:48:31.750Z,11.65
2023-04-21T23:50:58.221Z,11.23
2023-04-21T23:53:24.677Z,11.30
2023-04-21T23:55:51.075Z,10.65
2023-04-21T23:58:17.426Z,9.27
